Time;durP1;ratioP1;P1;durP2;ratioP2;P2;SDS_P1;SDS_P2;PMS_P1;PMS_P2;Temp;Humidity;BMP_temperature;BMP_pressure;BME280_temperature;BME280_humidity;BME280_pressure;Samples;Min_cycle;Max_cycle;Signal;HPM_P1;HPM_P2
2021/01/31 00:00:50;;;;;;;0.20;0.10;;;;;;;0.99;100.00;98769.31;5040657;28;20516;-50
2021/01/31 00:03:20;;;;;;;0.20;0.10;;;;;;;1.00;100.00;98761.44;5035769;28;20868;-51
2021/01/31 00:05:47;;;;;;;0.20;0.10;;;;;;;0.98;100.00;98773.66;5045374;28;20463;-50
2021/01/31 00:08:16;;;;;;;0.57;0.57;;;;;;;0.98;100.00;98767.56;5039096;28;20461;-50
2021/01/31 00:10:43;;;;;;;0.20;0.10;;;;;;;1.03;100.00;98770.97;5040250;28;20519;-50
2021/01/31 00:13:10;;;;;;;0.20;0.10;;;;;;;0.98;100.00;98763.22;5046330;28;20451;-49
2021/01/31 00:15:39;;;;;;;0.20;0.10;;;;;;;1.02;100.00;98764.88;5046242;28;20510;-50
2021/01/31 00:18:07;;;;;;;1.47;1.47;;;;;;;1.00;100.00;98763.19;5045855;28;20509;-50
2021/01/31 00:20:36;;;;;;;0.20;0.10;;;;;;;0.96;100.00;98766.72;5045903;28;20939;-50
2021/01/31 00:23:04;;;;;;;0.20;0.10;;;;;;;0.94;100.00;98763.25;5040192;28;20455;-50
2021/01/31 00:25:30;;;;;;;0.20;0.10;;;;;;;0.98;100.00;98770.19;5039055;28;21037;-49
2021/01/31 00:27:57;;;;;;;0.20;0.20;;;;;;;1.07;100.00;98777.88;5045595;28;20447;-51
2021/01/31 00:30:31;;;;;;;0.20;0.10;;;;;;;1.01;100.00;98785.84;5045653;28;20492;-51
2021/01/31 00:32:59;;;;;;;0.20;0.10;;;;;;;0.96;100.00;98795.47;5041562;28;20522;-50
2021/01/31 00:35:28;;;;;;;0.20;0.10;;;;;;;0.97;100.00;98797.25;5047157;28;20523;-51
2021/01/31 00:37:54;;;;;;;0.67;0.67;;;;;;;0.95;100.00;98778.91;5059226;28;20478;-50
2021/01/31 00:40:21;;;;;;;0.20;0.10;;;;;;;0.96;100.00;98792.88;5051126;28;20513;-50
2021/01/31 00:42:48;;;;;;;0.20;0.10;;;;;;;0.98;100.00;98778.91;5042409;28;20504;-50
2021/01/31 00:45:20;;;;;;;0.20;0.10;;;;;;;0.97;100.00;98778.94;5039049;28;20890;-51
2021/01/31 00:47:46;;;;;;;0.20;0.10;;;;;;;0.95;100.00;98783.28;5041862;28;20451;-50
2021/01/31 00:50:18;;;;;;;0.20;0.10;;;;;;;1.03;100.00;98798.00;5045997;28;20537;-50
2021/01/31 00:52:44;;;;;;;0.30;0.30;;;;;;;1.01;100.00;98794.53;5043785;28;20534;-50
2021/01/31 00:55:11;;;;;;;0.30;0.10;;;;;;;1.05;100.00;98792.75;5034199;28;20530;-50
2021/01/31 00:57:37;;;;;;;0.20;0.10;;;;;;;1.01;100.00;98788.44;5044253;28;20454;-51
2021/01/31 01:00:12;;;;;;;2.13;2.03;;;;;;;1.11;100.00;98790.06;5039091;28;20923;-50
2021/01/31 01:02:38;;;;;;;0.20;0.10;;;;;;;1.09;100.00;98787.44;5049461;28;20458;-50
2021/01/31 01:05:04;;;;;;;0.20;0.10;;;;;;;1.10;100.00;98785.72;5038628;28;21041;-50
2021/01/31 01:07:30;;;;;;;0.20;0.10;;;;;;;0.99;100.00;98782.38;5039030;28;20956;-50
2021/01/31 01:09:56;;;;;;;0.20;0.10;;;;;;;0.93;100.00;98780.69;5048054;28;20478;-50
2021/01/31 01:12:22;;;;;;;0.20;0.10;;;;;;;0.94;100.00;98782.44;5049107;28;20825;-51
2021/01/31 01:14:48;;;;;;;0.20;0.10;;;;;;;1.10;100.00;98781.34;5041178;28;20470;-51
2021/01/31 01:17:14;;;;;;;0.20;0.10;;;;;;;0.98;100.00;98801.59;5043192;28;20455;-50
2021/01/31 01:19:41;;;;;;;0.20;0.10;;;;;;;0.99;100.00;98798.94;5048999;28;21010;-50
2021/01/31 01:22:07;;;;;;;1.57;1.50;;;;;;;0.98;100.00;98812.91;5048778;28;20940;-50
2021/01/31 01:24:33;;;;;;;0.20;0.10;;;;;;;1.04;100.00;98804.97;5042238;28;20887;-50
2021/01/31 01:26:59;;;;;;;0.20;0.10;;;;;;;1.03;100.00;98818.06;5042741;28;20443;-51
2021/01/31 01:29:25;;;;;;;0.20;0.10;;;;;;;1.02;100.00;98813.72;5049251;28;20803;-50
2021/01/31 01:31:51;;;;;;;0.20;0.10;;;;;;;1.15;100.00;98805.69;5048147;28;20513;-50
2021/01/31 01:34:18;;;;;;;0.20;0.10;;;;;;;1.16;100.00;98806.53;5042393;28;20457;-51
2021/01/31 01:36:44;;;;;;;0.20;0.10;;;;;;;1.27;100.00;98814.22;5043200;28;20451;-50
2021/01/31 01:39:10;;;;;;;0.20;0.10;;;;;;;1.18;100.00;98820.47;5049037;28;20925;-50
2021/01/31 01:41:41;;;;;;;0.20;0.10;;;;;;;1.22;100.00;98808.19;5048211;28;20443;-51
2021/01/31 01:46:45;;;;;;;0.20;0.10;;;;;;;1.05;100.00;98811.06;5047114;28;20470;-55
2021/01/31 01:49:18;;;;;;;0.20;0.10;;;;;;;1.07;100.00;98796.19;5031414;28;20859;-55
2021/01/31 01:51:58;;;;;;;0.20;0.20;;;;;;;1.07;100.00;98797.06;5054997;28;20482;-55
2021/01/31 01:54:32;;;;;;;0.20;0.10;;;;;;;1.04;100.00;98809.31;5054910;28;20467;-54
2021/01/31 01:57:01;;;;;;;0.20;0.10;;;;;;;1.08;100.00;98801.41;5041690;28;20446;-55
2021/01/31 01:59:30;;;;;;;0.20;0.10;;;;;;;1.13;100.00;98798.75;5041519;28;20873;-52
2021/01/31 02:02:09;;;;;;;0.20;0.10;;;;;;;1.15;100.00;98807.44;5051312;28;20469;-54
2021/01/31 02:04:36;;;;;;;0.20;0.10;;;;;;;1.20;100.00;98805.59;5041754;28;20497;-54
2021/01/31 02:07:03;;;;;;;0.20;0.10;;;;;;;1.23;100.00;98807.28;5046152;28;21027;-54
2021/01/31 02:09:29;;;;;;;0.20;0.10;;;;;;;1.17;100.00;98801.28;5048002;28;20446;-54
2021/01/31 02:11:58;;;;;;;0.30;0.30;;;;;;;1.17;100.00;98809.13;5044165;28;20490;-54
2021/01/31 02:14:27;;;;;;;0.20;0.10;;;;;;;1.21;100.00;98820.41;5041091;28;20463;-55
2021/01/31 02:17:06;;;;;;;0.20;0.10;;;;;;;1.07;100.00;98825.84;5043430;28;20570;-55
2021/01/31 02:20:15;;;;;;;0.60;0.60;;;;;;;1.11;100.00;98829.31;5047930;28;20510;-55
2021/01/31 02:23:05;;;;;;;0.20;0.10;;;;;;;1.27;100.00;98827.31;5047704;28;20501;-54
2021/01/31 02:25:59;;;;;;;0.20;0.10;;;;;;;1.11;100.00;98832.78;5047861;28;20467;-55
2021/01/31 02:28:47;;;;;;;0.20;0.10;;;;;;;1.11;100.00;98824.94;5046225;28;20812;-55
2021/01/31 02:31:57;;;;;;;0.20;0.10;;;;;;;1.12;100.00;98831.88;5046513;28;20514;-55
2021/01/31 02:34:23;;;;;;;0.20;0.10;;;;;;;1.25;100.00;98827.34;5001047;28;20478;-54
2021/01/31 02:37:43;;;;;;;0.20;0.10;;;;;;;1.05;100.00;98837.22;5041108;28;20502;-55
2021/01/31 02:40:18;;;;;;;0.20;0.10;;;;;;;1.10;100.00;98833.66;4960061;28;20460;-55
2021/01/31 02:43:06;;;;;;;0.20;0.10;;;;;;;1.15;100.00;98836.22;5033493;28;20455;-55
2021/01/31 02:45:38;;;;;;;0.20;0.10;;;;;;;1.07;100.00;98827.59;5046953;28;20823;-53
2021/01/31 02:48:17;;;;;;;0.20;0.10;;;;;;;1.05;100.00;98826.75;5047220;28;20458;-54
2021/01/31 02:50:56;;;;;;;0.20;0.10;;;;;;;1.15;100.00;98824.00;5042841;28;20541;-55
2021/01/31 02:53:35;;;;;;;0.20;0.10;;;;;;;0.97;100.00;98823.41;5040336;28;20457;-55
2021/01/31 02:56:22;;;;;;;0.20;0.20;;;;;;;1.01;100.00;98830.31;5040971;28;20578;-55
2021/01/31 02:58:59;;;;;;;0.20;0.10;;;;;;;1.20;100.00;98818.69;5029778;28;20451;-55
2021/01/31 03:01:33;;;;;;;0.20;0.10;;;;;;;1.07;100.00;98827.59;5034494;28;20503;-54
2021/01/31 03:04:01;;;;;;;0.20;0.10;;;;;;;1.14;100.00;98831.88;5044137;28;20451;-55
2021/01/31 03:06:37;;;;;;;0.20;0.10;;;;;;;1.00;100.00;98833.81;5039996;28;20446;-54
2021/01/31 03:09:21;;;;;;;0.20;0.20;;;;;;;1.06;100.00;98826.72;5040345;28;20470;-54
2021/01/31 03:12:00;;;;;;;0.20;0.10;;;;;;;1.04;100.00;98827.63;5041039;28;21068;-55
2021/01/31 03:14:47;;;;;;;0.20;0.10;;;;;;;0.93;100.00;98822.56;5040140;28;20463;-55
2021/01/31 03:17:24;;;;;;;0.20;0.10;;;;;;;0.93;100.00;98824.31;5040757;28;20474;-55
2021/01/31 03:20:06;;;;;;;0.20;0.10;;;;;;;0.92;100.00;98831.28;5040579;28;20447;-54
2021/01/31 03:22:42;;;;;;;0.20;0.20;;;;;;;0.92;100.00;98822.56;5039988;28;20447;-55
2021/01/31 03:25:12;;;;;;;0.20;0.10;;;;;;;0.86;100.00;98823.53;5042683;28;20496;-54
2021/01/31 03:27:41;;;;;;;0.20;0.10;;;;;;;0.80;100.00;98819.22;5046576;28;20455;-55
2021/01/31 03:30:12;;;;;;;0.20;0.10;;;;;;;0.78;100.00;98830.59;5044705;28;20520;-55
2021/01/31 03:32:59;;;;;;;0.20;0.10;;;;;;;0.74;100.00;98829.78;5039615;28;20470;-55
2021/01/31 03:35:46;;;;;;;0.20;0.10;;;;;;;0.75;100.00;98834.13;5039594;28;20578;-55
2021/01/31 03:38:31;;;;;;;0.20;0.10;;;;;;;0.91;100.00;98834.78;5041581;28;20448;-53
2021/01/31 03:41:01;;;;;;;0.20;0.10;;;;;;;0.88;100.00;98838.31;5040101;28;20496;-55
2021/01/31 03:43:27;;;;;;;0.20;0.10;;;;;;;0.78;100.00;98826.22;5039231;28;21007;-55
2021/01/31 03:46:23;;;;;;;0.20;0.10;;;;;;;0.74;100.00;98823.69;5045109;28;20533;-55
2021/01/31 03:49:11;;;;;;;0.20;0.10;;;;;;;0.89;100.00;98823.47;5046122;28;20444;-56
2021/01/31 03:51:38;;;;;;;0.20;0.20;;;;;;;0.80;100.00;98826.22;5045759;28;20487;-54
2021/01/31 03:54:05;;;;;;;0.20;0.10;;;;;;;0.79;100.00;98825.34;5040982;28;20451;-55
2021/01/31 03:56:42;;;;;;;0.20;0.10;;;;;;;0.85;100.00;98834.88;5038914;28;20940;-55
2021/01/31 03:59:13;;;;;;;0.30;0.20;;;;;;;0.82;100.00;98843.63;5041992;28;20517;-55
2021/01/31 04:01:40;;;;;;;0.20;0.10;;;;;;;0.80;100.00;98834.91;5047553;28;20451;-55
2021/01/31 04:04:15;;;;;;;0.20;0.10;;;;;;;0.78;100.00;98838.44;5040991;28;20451;-53
2021/01/31 04:06:42;;;;;;;0.20;0.10;;;;;;;0.75;100.00;98834.13;5045783;28;20447;-54
2021/01/31 04:09:11;;;;;;;0.20;0.10;;;;;;;0.79;100.00;98840.19;5045439;28;20818;-53
2021/01/31 04:11:41;;;;;;;0.20;0.10;;;;;;;0.78;100.00;98828.84;5038946;28;20486;-54
2021/01/31 04:14:16;;;;;;;0.20;0.10;;;;;;;0.83;100.00;98832.28;5038937;28;20451;-54
2021/01/31 04:16:45;;;;;;;0.20;0.10;;;;;;;0.76;100.00;98828.00;5043987;28;20455;-54
2021/01/31 04:19:13;;;;;;;0.20;0.10;;;;;;;0.78;100.00;98826.22;5045422;28;20447;-53
2021/01/31 04:21:40;;;;;;;0.20;0.10;;;;;;;0.77;100.00;98826.25;5042015;28;20451;-53
2021/01/31 04:24:06;;;;;;;0.20;0.10;;;;;;;0.74;100.00;98832.41;5038681;28;20494;-53
2021/01/31 04:26:34;;;;;;;0.20;0.10;;;;;;;0.79;100.00;98832.34;5042752;28;20447;-53
2021/01/31 04:29:00;;;;;;;0.20;0.20;;;;;;;0.73;100.00;98835.91;5044238;28;20447;-54
2021/01/31 04:31:27;;;;;;;0.20;0.10;;;;;;;0.78;100.00;98822.75;5041933;28;20487;-52
2021/01/31 04:33:54;;;;;;;0.57;0.57;;;;;;;0.69;100.00;98822.91;5038705;28;20458;-53
2021/01/31 04:36:21;;;;;;;0.20;0.10;;;;;;;0.69;100.00;98829.00;5042653;28;20494;-53
2021/01/31 04:38:48;;;;;;;0.20;0.10;;;;;;;0.67;100.00;98835.09;5045517;28;20452;-52
2021/01/31 04:41:15;;;;;;;0.20;0.10;;;;;;;0.71;100.00;98829.84;5041897;28;20500;-53
2021/01/31 04:43:42;;;;;;;0.20;0.10;;;;;;;0.68;100.00;98847.28;5039366;28;20892;-52
2021/01/31 04:46:17;;;;;;;0.40;0.40;;;;;;;0.63;100.00;98854.31;5045760;28;20475;-53
2021/01/31 04:49:05;;;;;;;0.20;0.10;;;;;;;0.71;100.00;98842.91;5049634;28;20443;-54
2021/01/31 04:51:51;;;;;;;0.20;0.10;;;;;;;0.67;100.00;98837.72;5049163;28;20853;-54
2021/01/31 04:54:59;;;;;;;0.20;0.10;;;;;;;0.63;100.00;98849.09;5006464;28;20450;-53
2021/01/31 04:57:46;;;;;;;0.30;0.27;;;;;;;0.61;100.00;98846.50;5008162;28;20998;-53
2021/01/31 05:00:23;;;;;;;0.20;0.10;;;;;;;0.65;100.00;98847.31;5042346;28;20533;-53
2021/01/31 05:03:02;;;;;;;0.20;0.10;;;;;;;0.57;100.00;98848.31;5051773;28;20457;-53
2021/01/31 05:05:53;;;;;;;0.20;0.10;;;;;;;0.73;100.00;98848.13;5045234;28;20982;-53
2021/01/31 05:08:24;;;;;;;0.20;0.10;;;;;;;0.65;100.00;98852.56;5042264;28;20443;-52
2021/01/31 05:10:55;;;;;;;0.40;0.40;;;;;;;0.56;100.00;98850.94;5042682;28;20538;-53
2021/01/31 05:13:44;;;;;;;0.20;0.10;;;;;;;0.52;100.00;98846.59;5048011;28;20824;-54
2021/01/31 05:16:16;;;;;;;0.20;0.10;;;;;;;0.50;100.00;98858.84;5049001;28;20471;-53
2021/01/31 05:18:53;;;;;;;0.20;0.10;;;;;;;0.55;100.00;98859.66;5047769;28;20546;-52
2021/01/31 05:21:22;;;;;;;0.20;0.10;;;;;;;0.52;100.00;98860.53;5048750;28;20856;-52
2021/01/31 05:23:55;;;;;;;0.20;0.10;;;;;;;0.56;100.00;98870.09;5048958;28;20451;-53
2021/01/31 05:26:21;;;;;;;0.20;0.10;;;;;;;0.54;100.00;98870.97;5042434;28;20462;-51
2021/01/31 05:28:57;;;;;;;0.20;0.10;;;;;;;0.62;100.00;98874.38;5042050;28;20814;-53
2021/01/31 05:31:28;;;;;;;0.20;0.10;;;;;;;0.58;100.00;98876.16;5045580;28;21003;-53
2021/01/31 05:33:57;;;;;;;0.20;0.10;;;;;;;0.54;100.00;98876.19;5049016;28;20439;-52
2021/01/31 05:36:26;;;;;;;0.20;0.10;;;;;;;0.45;100.00;98874.56;5046012;28;20478;-52
2021/01/31 05:38:52;;;;;;;0.20;0.10;;;;;;;0.51;100.00;98871.88;5041886;28;20477;-53
2021/01/31 05:41:35;;;;;;;0.20;0.10;;;;;;;0.46;100.00;98878.91;5043997;28;20448;-52
2021/01/31 05:44:09;;;;;;;0.50;0.50;;;;;;;0.46;100.00;98865.84;5035107;28;20446;-51
2021/01/31 05:46:57;;;;;;;0.20;0.10;;;;;;;0.46;100.00;98878.91;5048593;28;20477;-52
2021/01/31 05:49:37;;;;;;;0.20;0.10;;;;;;;0.46;100.00;98880.66;5045624;28;20494;-53
2021/01/31 05:52:11;;;;;;;0.20;0.10;;;;;;;0.50;100.00;98882.34;5041124;28;20482;-51
2021/01/31 05:54:39;;;;;;;0.50;0.50;;;;;;;0.45;100.00;98884.16;5040952;28;20467;-52
2021/01/31 05:57:24;;;;;;;0.20;0.10;;;;;;;0.39;100.00;98876.38;5041010;28;20447;-55
2021/01/31 05:59:50;;;;;;;0.20;0.10;;;;;;;0.45;100.00;98881.56;5041375;28;20459;-53
2021/01/31 06:02:29;;;;;;;0.20;0.20;;;;;;;0.62;100.00;98878.75;5052041;28;20513;-54
2021/01/31 06:05:18;;;;;;;0.20;0.10;;;;;;;0.47;100.00;98885.88;5041087;28;20532;-54
2021/01/31 06:07:46;;;;;;;0.20;0.10;;;;;;;0.68;100.00;98889.13;5041045;28;20509;-54
2021/01/31 06:10:19;;;;;;;0.20;0.10;;;;;;;0.40;100.00;98883.34;5046885;28;20502;-54
2021/01/31 06:12:48;;;;;;;0.20;0.10;;;;;;;0.39;100.00;98873.75;5048075;28;20496;-53
2021/01/31 06:15:32;;;;;;;0.20;0.10;;;;;;;0.39;100.00;98886.81;5043279;28;20493;-53
2021/01/31 06:18:03;;;;;;;0.20;0.10;;;;;;;0.39;100.00;98885.06;5041090;28;20512;-54
2021/01/31 06:20:36;;;;;;;0.20;0.10;;;;;;;0.31;100.00;98893.91;5042420;28;20929;-54
2021/01/31 06:23:04;;;;;;;0.20;0.10;;;;;;;0.38;100.00;98890.31;5047555;28;20861;-53
2021/01/31 06:25:30;;;;;;;0.20;0.10;;;;;;;0.36;100.00;98894.72;5047243;28;20519;-54
2021/01/31 06:28:15;;;;;;;0.20;0.10;;;;;;;0.33;100.00;98899.97;5047388;28;20459;-54
2021/01/31 06:30:49;;;;;;;0.20;0.10;;;;;;;0.35;100.00;98901.69;5046180;28;21075;-54
2021/01/31 06:33:15;;;;;;;0.20;0.10;;;;;;;0.29;100.00;98907.84;5044460;28;20443;-54
2021/01/31 06:35:42;;;;;;;0.20;0.10;;;;;;;0.31;100.00;98913.06;5040169;28;20482;-54
2021/01/31 06:38:21;;;;;;;0.60;0.60;;;;;;;0.33;100.00;98911.28;5043658;28;20456;-54
2021/01/31 06:40:50;;;;;;;0.20;0.10;;;;;;;0.36;100.00;98926.06;5047185;28;20443;-54
2021/01/31 06:43:31;;;;;;;0.20;0.10;;;;;;;0.32;100.00;98927.84;5046743;28;21004;-54
2021/01/31 06:45:57;;;;;;;0.20;0.10;;;;;;;0.38;100.00;98932.13;5046022;28;20557;-54
2021/01/31 06:48:58;;;;;;;0.20;0.10;;;;;;;0.46;100.00;98939.03;5046668;28;20914;-53
2021/01/31 06:51:27;;;;;;;0.20;0.10;;;;;;;0.39;100.00;98937.34;5032649;28;20910;-54
2021/01/31 06:54:11;;;;;;;0.20;0.10;;;;;;;0.45;100.00;98933.81;5046919;28;20497;-54
2021/01/31 06:56:56;;;;;;;0.20;0.10;;;;;;;0.27;100.00;98942.69;5036978;28;20454;-54
2021/01/31 06:59:58;;;;;;;0.20;0.10;;;;;;;0.31;100.00;98940.94;5040603;28;20501;-54
2021/01/31 07:02:43;;;;;;;0.20;0.10;;;;;;;0.27;100.00;98954.03;5038236;28;20451;-54
2021/01/31 07:05:12;;;;;;;0.20;0.10;;;;;;;0.37;100.00;98952.19;5046002;28;20889;-54
2021/01/31 07:08:06;;;;;;;0.20;0.10;;;;;;;0.37;100.00;98962.63;5046578;28;20836;-55
2021/01/31 07:10:53;;;;;;;0.20;0.10;;;;;;;0.35;100.00;98953.94;5044830;28;20454;-55
2021/01/31 07:13:51;;;;;;;0.30;0.20;;;;;;;0.30;100.00;98950.53;5045280;28;20862;-55
2021/01/31 07:16:17;;;;;;;0.20;0.10;;;;;;;0.29;100.00;98952.25;5046790;28;20467;-55
2021/01/31 07:18:46;;;;;;;0.20;0.10;;;;;;;0.27;100.00;98954.03;5045420;28;20458;-54
2021/01/31 07:21:20;;;;;;;0.20;0.10;;;;;;;0.41;100.00;98960.84;5039752;28;20508;-55
2021/01/31 07:23:49;;;;;;;0.20;0.10;;;;;;;0.33;100.00;98968.78;5039969;28;20451;-54
2021/01/31 07:26:43;;;;;;;0.20;0.10;;;;;;;0.31;100.00;98957.47;5039707;28;20497;-55
2021/01/31 07:29:18;;;;;;;0.20;0.10;;;;;;;0.30;100.00;98950.53;5039975;28;20613;-55
2021/01/31 07:31:50;;;;;;;0.20;0.10;;;;;;;0.29;100.00;98962.72;5041269;28;20525;-55
2021/01/31 07:34:26;;;;;;;0.20;0.10;;;;;;;0.35;100.00;98959.16;5046400;28;20444;-54
2021/01/31 07:37:11;;;;;;;0.30;0.20;;;;;;;0.34;100.00;98946.13;5046629;28;20434;-55
2021/01/31 07:39:41;;;;;;;0.20;0.10;;;;;;;0.34;100.00;98953.97;5042514;28;20439;-55
2021/01/31 07:42:10;;;;;;;0.20;0.10;;;;;;;0.44;100.00;98953.00;5039506;28;20450;-54
2021/01/31 07:44:39;;;;;;;0.20;0.10;;;;;;;0.38;100.00;98966.13;5042122;28;20491;-55
2021/01/31 07:47:05;;;;;;;0.20;0.10;;;;;;;0.32;100.00;98950.50;5046022;28;20807;-54
2021/01/31 07:49:59;;;;;;;0.20;0.10;;;;;;;0.40;100.00;98965.22;5044044;28;20451;-56
2021/01/31 07:52:46;;;;;;;0.20;0.10;;;;;;;0.36;100.00;98962.66;5043949;28;20905;-55
2021/01/31 07:55:24;;;;;;;0.20;0.10;;;;;;;0.33;100.00;98963.56;5045478;28;20518;-54
2021/01/31 07:58:06;;;;;;;0.30;0.20;;;;;;;0.40;100.00;98959.13;5045672;28;20455;-55
2021/01/31 08:00:40;;;;;;;0.20;0.10;;;;;;;0.42;100.00;98968.69;5041193;28;20454;-55
2021/01/31 08:03:40;;;;;;;0.20;0.10;;;;;;;0.29;100.00;98975.78;5046196;28;20454;-55
2021/01/31 08:06:09;;;;;;;0.20;0.10;;;;;;;0.39;100.00;98975.69;5002618;28;21010;-55
2021/01/31 08:08:39;;;;;;;0.20;0.10;;;;;;;0.33;100.00;98979.22;5040404;28;20509;-54
2021/01/31 08:11:25;;;;;;;1.47;1.23;;;;;;;0.32;100.00;98979.25;5038927;28;20494;-55
2021/01/31 08:13:53;;;;;;;0.20;0.10;;;;;;;0.38;100.00;98981.78;4988349;28;20460;-55
2021/01/31 08:16:47;;;;;;;0.20;0.10;;;;;;;0.34;100.00;98980.09;5044191;28;20471;-55
2021/01/31 08:19:16;;;;;;;0.20;0.10;;;;;;;0.36;100.00;98989.66;5045317;28;20443;-55
2021/01/31 08:22:10;;;;;;;0.20;0.10;;;;;;;0.43;100.00;98977.41;5054232;22;21702;-49
2021/01/31 08:24:55;;;;;;;0.20;0.10;;;;;;;0.54;100.00;98986.84;5055915;28;20454;-49
2021/01/31 08:27:37;;;;;;;0.20;0.10;;;;;;;0.48;100.00;98986.06;5063591;28;20453;-50
2021/01/31 08:30:34;;;;;;;0.20;0.10;;;;;;;0.45;100.00;98973.91;5064332;28;20450;-50
2021/01/31 08:33:00;;;;;;;0.20;0.10;;;;;;;0.36;100.00;98979.19;5073178;28;20875;-49
2021/01/31 08:35:31;;;;;;;0.20;0.10;;;;;;;0.44;100.00;98977.38;5059447;28;20461;-49
2021/01/31 08:38:28;;;;;;;0.20;0.10;;;;;;;0.44;100.00;98979.13;5063690;28;20527;-50
2021/01/31 08:41:03;;;;;;;0.20;0.10;;;;;;;0.45;100.00;98980.88;5059688;28;20515;-50
2021/01/31 08:43:57;;;;;;;0.20;0.10;;;;;;;0.48;100.00;98984.31;5058923;28;20472;-49
2021/01/31 08:46:28;;;;;;;0.20;0.10;;;;;;;0.39;100.00;98976.53;5056879;28;20463;-50
2021/01/31 08:48:59;;;;;;;0.20;0.10;;;;;;;0.50;100.00;98969.47;5066289;28;20512;-50
2021/01/31 08:51:37;;;;;;;0.20;0.10;;;;;;;0.55;100.00;98972.94;5065358;28;21059;-50
2021/01/31 08:54:07;;;;;;;0.20;0.10;;;;;;;0.55;100.00;98974.69;5065383;28;20450;-50
2021/01/31 08:56:36;;;;;;;0.20;0.10;;;;;;;0.51;100.00;98975.56;5069234;28;20434;-49
2021/01/31 08:59:04;;;;;;;0.20;0.10;;;;;;;0.51;100.00;98963.38;5062596;28;20923;-49
2021/01/31 09:01:41;;;;;;;0.20;0.10;;;;;;;0.49;100.00;98970.34;5066979;28;20474;-51
2021/01/31 09:04:13;;;;;;;0.20;0.20;;;;;;;0.51;100.00;98971.22;5061057;28;20451;-50
2021/01/31 09:06:42;;;;;;;0.20;0.10;;;;;;;0.50;100.00;98959.03;5065829;28;20936;-49
2021/01/31 09:09:17;;;;;;;0.20;0.10;;;;;;;0.49;100.00;98975.59;5065774;28;20453;-49
2021/01/31 09:11:43;;;;;;;0.20;0.10;;;;;;;0.59;100.00;98966.78;5064946;28;20498;-49
2021/01/31 09:14:29;;;;;;;0.20;0.10;;;;;;;0.60;100.00;98970.25;5065665;28;20458;-49
2021/01/31 09:17:10;;;;;;;0.20;0.10;;;;;;;0.65;100.00;98973.69;5063266;28;20559;-49
2021/01/31 09:19:38;;;;;;;0.20;0.10;;;;;;;0.67;100.00;98974.53;5058742;28;20468;-50
2021/01/31 09:22:22;;;;;;;0.20;0.10;;;;;;;0.65;100.00;98978.91;5059360;28;20528;-49
2021/01/31 09:24:56;;;;;;;0.20;0.10;;;;;;;0.68;100.00;98975.41;5049625;28;20454;-49
2021/01/31 09:27:25;;;;;;;0.20;0.10;;;;;;;0.71;100.00;98986.72;5062078;28;20449;-49
2021/01/31 09:30:13;;;;;;;0.20;0.10;;;;;;;0.80;100.00;98975.28;5063200;28;20477;-49
2021/01/31 09:32:46;;;;;;;0.20;0.10;;;;;;;0.76;100.00;98973.59;5062373;28;20497;-49
2021/01/31 09:35:19;;;;;;;0.20;0.10;;;;;;;0.72;100.00;98964.91;5062532;28;20446;-49
2021/01/31 09:37:45;;;;;;;0.20;0.10;;;;;;;0.80;100.00;98968.28;5067864;28;20442;-49
2021/01/31 09:40:13;;;;;;;0.20;0.10;;;;;;;0.74;100.00;98973.59;5069332;28;20454;-48
2021/01/31 09:42:40;;;;;;;0.20;0.10;;;;;;;0.78;100.00;98982.28;5064724;28;20523;-49
2021/01/31 09:45:28;;;;;;;0.20;0.10;;;;;;;0.81;100.00;98977.88;5062466;28;20943;-49
2021/01/31 09:47:56;;;;;;;0.30;0.20;;;;;;;1.03;100.00;98990.72;5064051;28;20454;-49
2021/01/31 09:50:22;;;;;;;0.20;0.10;;;;;;;0.97;100.00;98988.19;5068817;28;20446;-49
2021/01/31 09:52:51;;;;;;;0.20;0.10;;;;;;;1.14;100.00;98996.72;5067919;28;20489;-51
2021/01/31 09:55:39;;;;;;;0.20;0.10;;;;;;;0.93;100.00;98995.19;5061991;28;20438;-49
2021/01/31 09:58:15;;;;;;;0.20;0.13;;;;;;;0.93;100.00;99004.78;5072936;28;20482;-49
2021/01/31 10:00:41;;;;;;;0.20;0.20;;;;;;;0.98;100.00;98998.63;5065809;28;20442;-50
2021/01/31 10:03:20;;;;;;;0.20;0.10;;;;;;;1.00;100.00;98996.00;5069086;28;20478;-49
2021/01/31 10:05:47;;;;;;;0.20;0.10;;;;;;;1.03;100.00;98999.44;5067441;28;20453;-49
2021/01/31 10:08:15;;;;;;;0.20;0.10;;;;;;;0.99;100.00;98999.50;5061620;28;20945;-49
2021/01/31 10:10:44;;;;;;;0.20;0.10;;;;;;;0.96;100.00;99004.75;5062784;28;20469;-49
2021/01/31 10:13:28;;;;;;;0.20;0.10;;;;;;;1.06;100.00;99003.75;5070063;28;20466;-50
2021/01/31 10:16:00;;;;;;;0.30;0.30;;;;;;;1.01;100.00;98989.88;5069935;28;20442;-51
2021/01/31 10:18:38;;;;;;;0.20;0.10;;;;;;;1.08;100.00;98984.53;5055375;28;20860;-50
2021/01/31 10:21:22;;;;;;;0.20;0.10;;;;;;;1.08;100.00;98967.97;5068654;28;20446;-50
2021/01/31 10:23:51;;;;;;;0.20;0.10;;;;;;;1.04;100.00;98967.16;5068445;28;20449;-48
2021/01/31 10:26:21;;;;;;;0.20;0.10;;;;;;;1.14;100.00;98965.31;5062129;28;20450;-50
2021/01/31 10:29:00;;;;;;;0.20;0.10;;;;;;;1.22;100.00;98960.81;5060524;28;20455;-50
2021/01/31 10:31:38;;;;;;;0.20;0.10;;;;;;;1.10;100.00;98963.63;5065251;28;20544;-49
2021/01/31 10:34:07;;;;;;;0.20;0.10;;;;;;;1.20;100.00;98967.84;5059494;28;20446;-49
2021/01/31 10:36:40;;;;;;;0.20;0.10;;;;;;;1.25;100.00;98963.44;5063118;28;20939;-49
2021/01/31 10:39:09;;;;;;;0.20;0.10;;;;;;;1.13;100.00;98976.66;5067059;28;20451;-49
2021/01/31 10:41:37;;;;;;;0.20;0.10;;;;;;;1.10;100.00;98966.25;5067321;28;20466;-49
2021/01/31 10:44:12;;;;;;;0.20;0.10;;;;;;;1.27;100.00;98968.66;5048057;28;20946;-49
2021/01/31 10:46:39;;;;;;;0.20;0.10;;;;;;;1.11;100.00;98968.84;5061528;28;20862;-49
2021/01/31 10:49:07;;;;;;;0.20;0.10;;;;;;;1.18;100.00;98967.00;5066641;28;20454;-49
2021/01/31 10:51:35;;;;;;;0.20;0.13;;;;;;;1.36;100.00;98971.97;5066928;28;20583;-49
2021/01/31 10:54:03;;;;;;;0.30;0.20;;;;;;;1.21;100.00;98974.81;5051506;28;20446;-50
2021/01/31 10:56:30;;;;;;;0.20;0.10;;;;;;;1.26;100.00;98974.75;5060722;28;20441;-49
2021/01/31 10:58:59;;;;;;;0.20;0.10;;;;;;;1.34;100.00;98972.91;5066253;28;20533;-49
2021/01/31 11:01:26;;;;;;;0.20;0.10;;;;;;;1.31;100.00;98971.19;5068069;28;20482;-49
2021/01/31 11:03:52;;;;;;;0.20;0.10;;;;;;;1.16;100.00;98960.91;5064860;28;20446;-49
2021/01/31 11:06:21;;;;;;;0.20;0.10;;;;;;;1.15;100.00;98962.66;5067569;28;20458;-49
2021/01/31 11:08:51;;;;;;;0.20;0.10;;;;;;;1.22;100.00;98962.56;5062787;28;20446;-49
2021/01/31 11:11:19;;;;;;;0.20;0.10;;;;;;;1.39;100.00;98960.63;5060232;28;20486;-49
2021/01/31 11:13:46;;;;;;;0.20;0.10;;;;;;;1.20;100.00;98957.38;5063172;28;20448;-49
2021/01/31 11:16:13;;;;;;;0.20;0.10;;;;;;;1.35;100.00;98969.38;5066972;28;20451;-50
2021/01/31 11:18:39;;;;;;;0.20;0.10;;;;;;;1.17;100.00;98967.88;5065140;28;21026;-49
2021/01/31 11:21:05;;;;;;;0.20;0.10;;;;;;;1.25;100.00;98966.03;5060099;28;20840;-50
2021/01/31 11:23:31;;;;;;;0.20;0.10;;;;;;;1.28;100.00;98965.13;5063224;28;20462;-49
2021/01/31 11:25:57;;;;;;;0.20;0.10;;;;;;;1.21;100.00;98964.31;5063543;28;20447;-49
2021/01/31 11:28:23;;;;;;;0.20;0.10;;;;;;;1.22;100.00;98966.06;5058140;28;20505;-49
2021/01/31 11:30:49;;;;;;;0.20;0.10;;;;;;;1.34;100.00;98957.19;5067018;28;20447;-49
2021/01/31 11:33:16;;;;;;;0.20;0.10;;;;;;;1.40;100.00;98954.50;5064381;28;20593;-49
2021/01/31 11:35:42;;;;;;;0.20;0.10;;;;;;;1.38;100.00;98949.31;5059900;28;20462;-49
2021/01/31 11:38:08;;;;;;;0.20;0.10;;;;;;;1.35;100.00;98946.69;5062738;28;20505;-49
2021/01/31 11:40:34;;;;;;;0.20;0.10;;;;;;;1.43;100.00;98946.59;5065813;28;20486;-49
2021/01/31 11:43:00;;;;;;;0.20;0.10;;;;;;;1.52;100.00;98940.41;5064634;28;20477;-49
2021/01/31 11:45:27;;;;;;;0.20;0.10;;;;;;;1.33;100.00;98938.00;5059756;28;20523;-49
2021/01/31 11:47:55;;;;;;;0.20;0.10;;;;;;;1.50;100.00;98943.00;5061654;28;20454;-51
2021/01/31 11:50:22;;;;;;;0.20;0.10;;;;;;;1.45;100.00;98939.59;5066918;28;20450;-50
2021/01/31 11:52:48;;;;;;;0.20;0.10;;;;;;;1.30;100.00;98945.03;5064483;28;20520;-50
2021/01/31 11:55:14;;;;;;;0.20;0.10;;;;;;;1.31;100.00;98928.44;5060465;28;20446;-50
2021/01/31 11:57:41;;;;;;;0.20;0.10;;;;;;;1.39;100.00;98931.84;5073778;28;20874;-50
2021/01/31 12:00:11;;;;;;;0.20;0.10;;;;;;;1.30;100.00;98934.56;5054598;28;20442;-49
2021/01/31 12:02:38;;;;;;;0.20;0.10;;;;;;;1.32;100.00;98919.72;5066261;28;20528;-49
2021/01/31 12:05:08;;;;;;;0.20;0.10;;;;;;;1.34;100.00;98923.16;5060865;28;20530;-50
2021/01/31 12:07:34;;;;;;;0.20;0.10;;;;;;;1.47;100.00;98920.34;5060673;28;20446;-49